Capt. Woody — WDG2789 — position and weather

sailwx.info

Track history (hours):
 
Tides and Currents Weather Stations Pressure Air Temp Water Temp Dewpoint Dewpoint Depression Visibility Wind Speed Wind Dir Waves Ship Positions

Capt. Woody

Owner: W3 Marine, Norfolk, VA. More information available from US FCC via Universal Licensing System and Coast Guard Vessel Documentation Center.

Last reported at 2018-Feb-23 00:21 UTC. Time now 2018-Feb-23 00:54 UTC.
Position N 36°58' W 076°25'.

Length 20 m; draft 2.3 m.

Type: Towing. MMSI: 367519290.

Date/timePositionNaut miles runAvg speedWind from/ knotsBaromVisibWave heightAir tempDewpointWater temp
2018-Feb-23 00:21N 36°58' W 076°25'0 0.0
2018-Feb-22 23:56N 36°58' W 076°25'0 0.0
2018-Feb-22 23:25N 36°58' W 076°25'0 0.0
2018-Feb-22 23:00N 36°58' W 076°25'0 0.0
2018-Feb-22 22:30N 36°58' W 076°25'1 1.5
2018-Feb-22 22:00N 36°58' W 076°25'2 3.2
2018-Feb-22 21:24N 36°59' W 076°27'0 0.0
2018-Feb-22 20:38N 36°59' W 076°27'0 0.0
2018-Feb-22 20:27N 36°59' W 076°27'0 0.0
2018-Feb-22 19:37N 36°59' W 076°27'0 0.0
2018-Feb-22 19:25N 36°59' W 076°27'0 0.0
2018-Feb-22 18:59N 36°59' W 076°27'0 0.0
2018-Feb-22 18:24N 36°59' W 076°27'0 0.0
2018-Feb-22 17:57N 36°59' W 076°27'0 0.0
2018-Feb-22 17:25N 36°59' W 076°27'0 0.0
2018-Feb-22 16:48N 36°59' W 076°27'0 0.0
2018-Feb-22 16:15N 36°59' W 076°27'0 0.0
2018-Feb-22 15:59N 36°59' W 076°27'0 0.0
2018-Feb-22 15:25N 36°59' W 076°27'0 0.0
2018-Feb-22 14:54N 36°59' W 076°27'0 0.0
2018-Feb-22 14:30N 36°59' W 076°27'0 0.0
2018-Feb-22 13:58N 36°59' W 076°27'0 0.0
2018-Feb-22 13:25N 36°59' W 076°27'0 0.0
2018-Feb-22 12:59N 36°59' W 076°27'0 0.0
2018-Feb-22 12:16N 36°59' W 076°27'0 0.0
2018-Feb-22 11:58N 36°59' W 076°27'1 2.5
2018-Feb-22 11:26N 36°58' W 076°26'1 2.7
2018-Feb-22 10:59N 36°58' W 076°25'0 0.0
2018-Feb-22 10:29N 36°58' W 076°25'0 0.0
2018-Feb-22 09:50N 36°58' W 076°25'0 0.0
2018-Feb-22 09:30N 36°58' W 076°25'0 0.0
2018-Feb-22 08:59N 36°58' W 076°25'0 0.0
2018-Feb-22 08:30N 36°58' W 076°25'0 0.0
2018-Feb-22 08:00N 36°58' W 076°25'0 0.0
2018-Feb-22 07:17N 36°58' W 076°25'0 0.0
2018-Feb-22 06:57N 36°58' W 076°25'0 0.0
2018-Feb-22 06:27N 36°58' W 076°25'0 0.0
2018-Feb-22 05:22N 36°58' W 076°25'0 0.0
2018-Feb-22 04:52N 36°58' W 076°25'0 0.0
2018-Feb-22 04:27N 36°58' W 076°25'0 0.0
2018-Feb-22 03:53N 36°58' W 076°25'0 0.0
2018-Feb-22 03:27N 36°58' W 076°25'0 0.0
2018-Feb-22 02:57N 36°58' W 076°25'0 0.0
2018-Feb-22 02:27N 36°58' W 076°25'0 0.0
2018-Feb-22 01:56N 36°58' W 076°25'0 0.0
2018-Feb-22 01:26N 36°58' W 076°25'0 0.0
2018-Feb-22 00:56N 36°58' W 076°25'0 0.0
2018-Feb-22 00:26N 36°58' W 076°25'0 0.0
2018-Feb-22 00:00N 36°58' W 076°25'0 0.0
2018-Feb-21 23:27N 36°58' W 076°25'0 0.8
2018-Feb-21 22:56N 36°57' W 076°25'3 4.4
2018-Feb-21 22:22N 36°59' W 076°27'0 0.0
2018-Feb-21 21:56N 36°59' W 076°27'0 0.0
2018-Feb-21 21:26N 36°59' W 076°27'0 0.0
2018-Feb-21 19:50N 36°59' W 076°27'0 0.2
2018-Feb-21 19:25N 36°59' W 076°27'0 0.0
2018-Feb-21 16:07N 36°59' W 076°27'0 0.0
2018-Feb-21 16:00N 36°59' W 076°27'0 0.0
2018-Feb-21 15:27N 36°59' W 076°27'1 1.5
2018-Feb-21 14:58N 36°59' W 076°27'1 0.9
2018-Feb-21 14:09N 36°59' W 076°27'0 0.0
2018-Feb-21 13:13N 36°59' W 076°27'0 0.2
2018-Feb-21 11:45N 36°59' W 076°27'1 5.8
2018-Feb-21 11:30N 36°58' W 076°26'1 1.8
2018-Feb-21 11:00N 36°58' W 076°25'0 0.0
2018-Feb-21 10:29N 36°58' W 076°25'0 0.0
2018-Feb-21 09:59N 36°58' W 076°25'0 0.0
2018-Feb-21 09:29N 36°58' W 076°25'0 0.0
2018-Feb-21 08:59N 36°58' W 076°25'0 0.0
2018-Feb-21 08:29N 36°58' W 076°25'0 0.0
2018-Feb-21 07:58N 36°58' W 076°25'0 0.0
2018-Feb-21 07:28N 36°58' W 076°25'0 0.0
2018-Feb-21 06:58N 36°58' W 076°25'0 0.0
2018-Feb-21 06:27N 36°58' W 076°25'0 0.0
2018-Feb-21 05:57N 36°58' W 076°25'0 0.0
2018-Feb-21 05:26N 36°58' W 076°25'0 0.0
2018-Feb-21 04:56N 36°58' W 076°25'0 0.0
2018-Feb-21 04:30N 36°58' W 076°25'0 0.0
2018-Feb-21 04:00N 36°58' W 076°25'0 0.0
2018-Feb-21 03:29N 36°58' W 076°25'0 0.0
2018-Feb-21 02:59N 36°58' W 076°25'0 0.0
2018-Feb-21 02:27N 36°58' W 076°25'0 0.0
2018-Feb-21 01:57N 36°58' W 076°25'0 0.0
2018-Feb-21 01:27N 36°58' W 076°25'0 0.0
2018-Feb-21 00:56N 36°58' W 076°25'0 0.0
2018-Feb-21 00:24N 36°58' W 076°25'0 0.0
2018-Feb-20 23:49N 36°58' W 076°25'0 0.0
2018-Feb-20 23:29N 36°58' W 076°25'0 0.0
2018-Feb-20 22:58N 36°58' W 076°25'0 0.0
2018-Feb-20 22:28N 36°58' W 076°25'0 0.0
2018-Feb-20 21:57N 36°58' W 076°25'0 0.0
2018-Feb-20 21:23N 36°58' W 076°25'0 0.0
2018-Feb-20 20:57N 36°58' W 076°25'0 0.0
2018-Feb-20 20:26N 36°58' W 076°25'0 0.0
2018-Feb-20 20:00N 36°58' W 076°25'0 0.0
2018-Feb-20 19:29N 36°58' W 076°25'2 1.0
2018-Feb-20 17:12N 36°59' W 076°27'0 0.0
2018-Feb-20 12:22N 36°59' W 076°27'2 3.7
2018-Feb-20 11:46N 36°58' W 076°25'0 0.0
2018-Feb-20 11:30N 36°58' W 076°25'0 0.2
2018-Feb-20 11:00N 36°58' W 076°25'0 0.0
2018-Feb-20 10:30N 36°58' W 076°25'0 0.0
2018-Feb-20 09:59N 36°58' W 076°25'0 0.0
2018-Feb-20 09:21N 36°58' W 076°25'0 0.0
2018-Feb-20 08:56N 36°58' W 076°25'0 0.0
2018-Feb-20 08:30N 36°58' W 076°25'0 0.0
2018-Feb-20 07:54N 36°58' W 076°25'0 0.0
2018-Feb-20 07:23N 36°58' W 076°25'0 0.0
2018-Feb-20 06:58N 36°58' W 076°25'0 0.0
2018-Feb-20 06:27N 36°58' W 076°25'0 0.0
2018-Feb-20 05:57N 36°58' W 076°25'0 0.0
2018-Feb-20 05:27N 36°58' W 076°25'0 0.0
2018-Feb-20 04:56N 36°58' W 076°25'0 0.0
2018-Feb-20 04:26N 36°58' W 076°25'0 0.0
2018-Feb-20 03:56N 36°58' W 076°25'0 0.0
2018-Feb-20 03:30N 36°58' W 076°25'0 0.0
2018-Feb-20 03:00N 36°58' W 076°25'0 0.0
2018-Feb-20 02:29N 36°58' W 076°25'0 0.0
2018-Feb-20 01:59N 36°58' W 076°25'0 0.0
2018-Feb-20 01:29N 36°58' W 076°25'0 0.0
2018-Feb-20 00:59N 36°58' W 076°25'0 0.0
2018-Feb-20 00:28N 36°58' W 076°25'0 0.0
2018-Feb-19 23:45N 36°58' W 076°25'0 0.0
2018-Feb-19 23:30N 36°58' W 076°25'1 1.6
2018-Feb-19 22:58N 36°58' W 076°26'1 1.6
2018-Feb-19 22:29N 36°58' W 076°26'0 0.4
2018-Feb-19 21:54N 36°58' W 076°26'1 0.8
2018-Feb-19 20:48N 36°59' W 076°27'0 0.0
2018-Feb-19 15:40N 36°59' W 076°27'0 0.1
2018-Feb-19 15:27N 36°59' W 076°27'0 0.0
2018-Feb-19 15:00N 36°59' W 076°27'0 0.1
2018-Feb-19 12:22N 36°59' W 076°27'3 6.6
2018-Feb-19 11:56N 36°57' W 076°24'3 7.0
2018-Feb-19 11:30N 36°56' W 076°21'4 7.5
2018-Feb-19 11:00N 36°52' W 076°20'4 7.1
2018-Feb-19 10:30N 36°49' W 076°17'0 0.3
2018-Feb-19 10:00N 36°49' W 076°17'0 0.0
2018-Feb-19 09:30N 36°49' W 076°17'0 0.0
2018-Feb-19 09:00N 36°49' W 076°17'0 0.0
2018-Feb-19 08:30N 36°49' W 076°17'0 0.0
2018-Feb-19 08:00N 36°49' W 076°17'0 0.0
2018-Feb-19 07:30N 36°49' W 076°17'0 0.0
2018-Feb-19 07:00N 36°49' W 076°17'0 0.0
2018-Feb-19 06:30N 36°49' W 076°17'0 0.0
2018-Feb-19 06:00N 36°49' W 076°17'0 0.0
2018-Feb-19 05:30N 36°49' W 076°17'0 0.0
2018-Feb-19 05:00N 36°49' W 076°17'0 0.0
2018-Feb-19 04:30N 36°49' W 076°17'0 0.0
2018-Feb-19 04:00N 36°49' W 076°17'0 0.0
2018-Feb-19 03:30N 36°49' W 076°17'0 0.0
2018-Feb-19 03:00N 36°49' W 076°17'0 0.0
2018-Feb-19 02:30N 36°49' W 076°17'0 0.0
2018-Feb-19 02:00N 36°49' W 076°17'0 0.0
2018-Feb-19 01:30N 36°49' W 076°17'0 0.0
2018-Feb-19 01:01N 36°49' W 076°17'0 0.0
2018-Feb-19 00:30N 36°49' W 076°17'0 0.0
2018-Feb-19 00:00N 36°49' W 076°17'0 0.0
2018-Feb-18 23:30N 36°49' W 076°17'0 0.0
2018-Feb-18 23:00N 36°49' W 076°17'0 0.0
2018-Feb-18 22:30N 36°49' W 076°17'0 0.0
2018-Feb-18 22:00N 36°49' W 076°17'0 0.0
2018-Feb-18 21:30N 36°49' W 076°17'0 0.0
2018-Feb-18 21:00N 36°49' W 076°17'0 0.0
2018-Feb-18 20:30N 36°49' W 076°17'0 0.0
2018-Feb-18 20:00N 36°49' W 076°17'0 0.0
2018-Feb-18 19:30N 36°49' W 076°17'0 0.0
2018-Feb-18 19:00N 36°49' W 076°17'0 0.0
2018-Feb-18 18:30N 36°49' W 076°17'0 0.0
2018-Feb-18 18:00N 36°49' W 076°17'0 0.0
2018-Feb-18 17:30N 36°49' W 076°17'0 0.0
2018-Feb-18 17:00N 36°49' W 076°17'0 0.0
2018-Feb-18 16:30N 36°49' W 076°17'0 0.0
2018-Feb-18 16:00N 36°49' W 076°17'0 0.0
2018-Feb-18 15:30N 36°49' W 076°17'0 0.0
2018-Feb-18 15:00N 36°49' W 076°17'0 0.0
2018-Feb-18 14:30N 36°49' W 076°17'0 0.0
2018-Feb-18 14:00N 36°49' W 076°17'0 0.0
2018-Feb-18 13:30N 36°49' W 076°17'0 0.0
2018-Feb-18 13:00N 36°49' W 076°17'0 0.0
2018-Feb-18 12:30N 36°49' W 076°17'0 0.0
2018-Feb-18 12:00N 36°49' W 076°17'0 0.0
2018-Feb-18 11:30N 36°49' W 076°17'0 0.0
2018-Feb-18 11:00N 36°49' W 076°17'0 0.0
2018-Feb-18 10:30N 36°49' W 076°17'0 0.0
2018-Feb-18 10:00N 36°49' W 076°17'0 0.0
2018-Feb-18 09:30N 36°49' W 076°17'0 0.0
2018-Feb-18 09:01N 36°49' W 076°17'0 0.0
2018-Feb-18 08:30N 36°49' W 076°17'0 0.0
2018-Feb-18 08:00N 36°49' W 076°17'0 0.0
2018-Feb-18 07:30N 36°49' W 076°17'0 0.0
2018-Feb-18 07:00N 36°49' W 076°17'0 0.0
2018-Feb-18 06:30N 36°49' W 076°17'0 0.0
2018-Feb-18 06:00N 36°49' W 076°17'0 0.0
2018-Feb-18 05:30N 36°49' W 076°17'0 0.0
2018-Feb-18 05:00N 36°49' W 076°17'0 0.0
2018-Feb-18 04:30N 36°49' W 076°17'0 0.0
2018-Feb-18 04:00N 36°49' W 076°17'0 0.0
2018-Feb-18 03:30N 36°49' W 076°17'0 0.0
2018-Feb-18 03:00N 36°49' W 076°17'0 0.0
2018-Feb-18 02:31N 36°49' W 076°17'0 0.0
2018-Feb-18 02:00N 36°49' W 076°17'0 0.0
2018-Feb-18 01:30N 36°49' W 076°17'0 0.0
2018-Feb-18 01:00N 36°49' W 076°17'0 0.0
2018-Feb-18 00:30N 36°49' W 076°17'0 0.0
2018-Feb-18 00:00N 36°49' W 076°17'0 0.0
2018-Feb-17 23:30N 36°49' W 076°17'0 0.0
2018-Feb-17 23:00N 36°49' W 076°17'0 0.0
2018-Feb-17 22:30N 36°49' W 076°17'0 0.0
2018-Feb-17 22:00N 36°49' W 076°17'0 0.0
2018-Feb-17 21:30N 36°49' W 076°17'0 0.0
2018-Feb-17 21:00N 36°49' W 076°17'0 0.0
2018-Feb-17 20:30N 36°49' W 076°17'0 0.0
2018-Feb-17 20:00N 36°49' W 076°17'0 0.0
2018-Feb-17 19:30N 36°49' W 076°17'0 0.0
2018-Feb-17 19:00N 36°49' W 076°17'0 0.1
2018-Feb-17 18:30N 36°49' W 076°17'0 0.0
2018-Feb-17 18:01N 36°49' W 076°17'0 0.0
2018-Feb-17 17:30N 36°49' W 076°17'0 0.0
2018-Feb-17 17:00N 36°49' W 076°17'0 0.0
2018-Feb-17 16:30N 36°49' W 076°17'0 0.0
2018-Feb-17 16:00N 36°49' W 076°17'0 0.0
2018-Feb-17 15:31N 36°49' W 076°17'0 0.0
2018-Feb-17 15:01N 36°49' W 076°17'0 0.1
2018-Feb-17 14:31N 36°49' W 076°17'0 0.1
2018-Feb-17 14:01N 36°49' W 076°17'0 0.0
2018-Feb-17 13:30N 36°49' W 076°17'0 0.0
2018-Feb-17 13:00N 36°49' W 076°17'0 0.0
2018-Feb-17 12:31N 36°49' W 076°17'0 0.0
2018-Feb-17 12:00N 36°49' W 076°17'0 0.0
2018-Feb-17 11:30N 36°49' W 076°17'0 0.0
2018-Feb-17 11:00N 36°49' W 076°17'0 0.0
2018-Feb-17 10:31N 36°49' W 076°17'0 0.0
2018-Feb-17 10:00N 36°49' W 076°17'0 0.0
2018-Feb-17 09:31N 36°49' W 076°17'0 0.0
2018-Feb-17 09:00N 36°49' W 076°17'0 0.0
2018-Feb-17 08:30N 36°49' W 076°17'0 0.0
2018-Feb-17 08:00N 36°49' W 076°17'0 0.0
2018-Feb-17 07:30N 36°49' W 076°17'0 0.0
2018-Feb-17 07:00N 36°49' W 076°17'0 0.0
2018-Feb-17 06:30N 36°49' W 076°17'0 0.0
2018-Feb-17 06:00N 36°49' W 076°17'0 0.0
2018-Feb-17 05:30N 36°49' W 076°17'0 0.0
2018-Feb-17 05:01N 36°49' W 076°17'0 0.0
2018-Feb-17 04:30N 36°49' W 076°17'0 0.0
2018-Feb-17 04:01N 36°49' W 076°17'0 0.0
2018-Feb-17 03:31N 36°49' W 076°17'0 0.0
2018-Feb-17 03:00N 36°49' W 076°17'0 0.0
2018-Feb-17 02:31N 36°49' W 076°17'0 0.0
2018-Feb-17 02:00N 36°49' W 076°17'0 0.0
2018-Feb-17 01:30N 36°49' W 076°17'0 0.0
2018-Feb-17 01:01N 36°49' W 076°17'0 0.0
2018-Feb-17 00:31N 36°49' W 076°17'0 0.0
2018-Feb-17 00:00N 36°49' W 076°17'0 0.0
2018-Feb-16 23:30N 36°49' W 076°17'0 0.0
2018-Feb-16 23:01N 36°49' W 076°17'0 0.0
2018-Feb-16 22:30N 36°49' W 076°17'0 0.0
2018-Feb-16 22:01N 36°49' W 076°17'0 0.0
2018-Feb-16 21:31N 36°49' W 076°17'0 0.0
2018-Feb-16 21:01N 36°49' W 076°17'0 0.0
2018-Feb-16 20:30N 36°49' W 076°17'0 0.0
2018-Feb-16 20:00N 36°49' W 076°17'0 0.0
2018-Feb-16 19:30N 36°49' W 076°17'0 0.0
2018-Feb-16 19:00N 36°49' W 076°17'0 0.1
2018-Feb-16 18:31N 36°49' W 076°17'0 0.1
2018-Feb-16 18:00N 36°49' W 076°17'0 0.0
2018-Feb-16 17:30N 36°49' W 076°17'0 0.0
2018-Feb-16 17:00N 36°49' W 076°17'0 0.0
2018-Feb-16 16:30N 36°49' W 076°17'0 0.0
2018-Feb-16 16:01N 36°49' W 076°17'0 0.1
2018-Feb-16 15:31N 36°49' W 076°17'0 0.1
2018-Feb-16 15:00N 36°49' W 076°17'0 0.0
2018-Feb-16 14:30N 36°49' W 076°17'0 0.0
2018-Feb-16 14:00N 36°49' W 076°17'0 0.0
2018-Feb-16 13:30N 36°49' W 076°17'0 0.0
2018-Feb-16 13:01N 36°49' W 076°17'0 0.0
2018-Feb-16 12:30N 36°49' W 076°17'0 0.1
2018-Feb-16 12:00N 36°49' W 076°17'0 0.0
2018-Feb-16 11:31N 36°49' W 076°17'0 0.0
2018-Feb-16 11:00N 36°49' W 076°17'0 0.0
2018-Feb-16 10:31N 36°49' W 076°17'0 0.0
2018-Feb-16 10:00N 36°49' W 076°17'0 0.0
2018-Feb-16 09:30N 36°49' W 076°17'0 0.0
2018-Feb-16 09:00N 36°49' W 076°17'0 0.0
2018-Feb-16 08:31N 36°49' W 076°17'0 0.0
2018-Feb-16 08:00N 36°49' W 076°17'0 0.0
2018-Feb-16 07:31N 36°49' W 076°17'0 0.0
2018-Feb-16 07:01N 36°49' W 076°17'0 0.0
2018-Feb-16 06:31N 36°49' W 076°17'0 0.0
2018-Feb-16 06:00N 36°49' W 076°17'0 0.0
2018-Feb-16 05:31N 36°49' W 076°17'0 0.0
2018-Feb-16 05:01N 36°49' W 076°17'0 0.0
2018-Feb-16 04:31N 36°49' W 076°17'0 0.0
2018-Feb-16 04:01N 36°49' W 076°17'0 0.0
2018-Feb-16 03:31N 36°49' W 076°17'0 0.0
2018-Feb-16 03:00N 36°49' W 076°17'0 0.0
2018-Feb-16 02:30N 36°49' W 076°17'0 0.0
2018-Feb-16 02:00N 36°49' W 076°17'0 0.0
2018-Feb-16 01:30N 36°49' W 076°17'0 0.0
2018-Feb-16 01:00N 36°49' W 076°17'0 0.0
2018-Feb-16 00:31N 36°49' W 076°17'0 0.0
2018-Feb-16 00:00N 36°49' W 076°17'0 0.0
2018-Feb-15 23:31N 36°49' W 076°17'0 0.0
2018-Feb-15 23:00N 36°49' W 076°17'0 0.0
2018-Feb-15 22:31N 36°49' W 076°17'0 1.0
2018-Feb-15 22:01N 36°50' W 076°18'3 6.8
2018-Feb-15 21:30N 36°53' W 076°20'4 7.0
2018-Feb-15 20:56N 36°57' W 076°21'5 4.3
2018-Feb-15 19:41N 36°59' W 076°27'  
Track history (hours):
 
Tides and Currents Weather Stations Pressure Air Temp Water Temp Dewpoint Dewpoint Depression Visibility Wind Speed Wind Dir Waves Ship Positions

Capt. Woody

Owner: W3 Marine, Norfolk, VA. More information available from US FCC via Universal Licensing System and Coast Guard Vessel Documentation Center.

Last reported at 2018-Feb-23 00:21 UTC. Time now 2018-Feb-23 00:54 UTC.
Position N 36°58' W 076°25'.

Length 20 m; draft 2.3 m.

Type: Towing. MMSI: 367519290.

Date/timePositionNaut miles runAvg speedWind from/ knotsBaromVisibWave heightAir tempDewpointWater temp
2018-Feb-23 00:21N 36°58' W 076°25'0 0.0
2018-Feb-22 23:56N 36°58' W 076°25'0 0.0
2018-Feb-22 23:25N 36°58' W 076°25'0 0.0
2018-Feb-22 23:00N 36°58' W 076°25'0 0.0
2018-Feb-22 22:30N 36°58' W 076°25'1 1.5
2018-Feb-22 22:00N 36°58' W 076°25'2 3.2
2018-Feb-22 21:24N 36°59' W 076°27'0 0.0
2018-Feb-22 20:38N 36°59' W 076°27'0 0.0
2018-Feb-22 20:27N 36°59' W 076°27'0 0.0
2018-Feb-22 19:37N 36°59' W 076°27'0 0.0
2018-Feb-22 19:25N 36°59' W 076°27'0 0.0
2018-Feb-22 18:59N 36°59' W 076°27'0 0.0
2018-Feb-22 18:24N 36°59' W 076°27'0 0.0
2018-Feb-22 17:57N 36°59' W 076°27'0 0.0
2018-Feb-22 17:25N 36°59' W 076°27'0 0.0
2018-Feb-22 16:48N 36°59' W 076°27'0 0.0
2018-Feb-22 16:15N 36°59' W 076°27'0 0.0
2018-Feb-22 15:59N 36°59' W 076°27'0 0.0
2018-Feb-22 15:25N 36°59' W 076°27'0 0.0
2018-Feb-22 14:54N 36°59' W 076°27'0 0.0
2018-Feb-22 14:30N 36°59' W 076°27'0 0.0
2018-Feb-22 13:58N 36°59' W 076°27'0 0.0
2018-Feb-22 13:25N 36°59' W 076°27'0 0.0
2018-Feb-22 12:59N 36°59' W 076°27'0 0.0
2018-Feb-22 12:16N 36°59' W 076°27'0 0.0
2018-Feb-22 11:58N 36°59' W 076°27'1 2.5
2018-Feb-22 11:26N 36°58' W 076°26'1 2.7
2018-Feb-22 10:59N 36°58' W 076°25'0 0.0
2018-Feb-22 10:29N 36°58' W 076°25'0 0.0
2018-Feb-22 09:50N 36°58' W 076°25'0 0.0
2018-Feb-22 09:30N 36°58' W 076°25'0 0.0
2018-Feb-22 08:59N 36°58' W 076°25'0 0.0
2018-Feb-22 08:30N 36°58' W 076°25'0 0.0
2018-Feb-22 08:00N 36°58' W 076°25'0 0.0
2018-Feb-22 07:17N 36°58' W 076°25'0 0.0
2018-Feb-22 06:57N 36°58' W 076°25'0 0.0
2018-Feb-22 06:27N 36°58' W 076°25'0 0.0
2018-Feb-22 05:22N 36°58' W 076°25'0 0.0
2018-Feb-22 04:52N 36°58' W 076°25'0 0.0
2018-Feb-22 04:27N 36°58' W 076°25'0 0.0
2018-Feb-22 03:53N 36°58' W 076°25'0 0.0
2018-Feb-22 03:27N 36°58' W 076°25'0 0.0
2018-Feb-22 02:57N 36°58' W 076°25'0 0.0
2018-Feb-22 02:27N 36°58' W 076°25'0 0.0
2018-Feb-22 01:56N 36°58' W 076°25'0 0.0
2018-Feb-22 01:26N 36°58' W 076°25'0 0.0
2018-Feb-22 00:56N 36°58' W 076°25'0 0.0
2018-Feb-22 00:26N 36°58' W 076°25'0 0.0
2018-Feb-22 00:00N 36°58' W 076°25'0 0.0
2018-Feb-21 23:27N 36°58' W 076°25'0 0.8
2018-Feb-21 22:56N 36°57' W 076°25'3 4.4
2018-Feb-21 22:22N 36°59' W 076°27'0 0.0
2018-Feb-21 21:56N 36°59' W 076°27'0 0.0
2018-Feb-21 21:26N 36°59' W 076°27'0 0.0
2018-Feb-21 19:50N 36°59' W 076°27'0 0.2
2018-Feb-21 19:25N 36°59' W 076°27'0 0.0
2018-Feb-21 16:07N 36°59' W 076°27'0 0.0
2018-Feb-21 16:00N 36°59' W 076°27'0 0.0
2018-Feb-21 15:27N 36°59' W 076°27'1 1.5
2018-Feb-21 14:58N 36°59' W 076°27'1 0.9
2018-Feb-21 14:09N 36°59' W 076°27'0 0.0
2018-Feb-21 13:13N 36°59' W 076°27'0 0.2
2018-Feb-21 11:45N 36°59' W 076°27'1 5.8
2018-Feb-21 11:30N 36°58' W 076°26'1 1.8
2018-Feb-21 11:00N 36°58' W 076°25'0 0.0
2018-Feb-21 10:29N 36°58' W 076°25'0 0.0
2018-Feb-21 09:59N 36°58' W 076°25'0 0.0
2018-Feb-21 09:29N 36°58' W 076°25'0 0.0
2018-Feb-21 08:59N 36°58' W 076°25'0 0.0
2018-Feb-21 08:29N 36°58' W 076°25'0 0.0
2018-Feb-21 07:58N 36°58' W 076°25'0 0.0
2018-Feb-21 07:28N 36°58' W 076°25'0 0.0
2018-Feb-21 06:58N 36°58' W 076°25'0 0.0
2018-Feb-21 06:27N 36°58' W 076°25'0 0.0
2018-Feb-21 05:57N 36°58' W 076°25'0 0.0
2018-Feb-21 05:26N 36°58' W 076°25'0 0.0
2018-Feb-21 04:56N 36°58' W 076°25'0 0.0
2018-Feb-21 04:30N 36°58' W 076°25'0 0.0
2018-Feb-21 04:00N 36°58' W 076°25'0 0.0
2018-Feb-21 03:29N 36°58' W 076°25'0 0.0
2018-Feb-21 02:59N 36°58' W 076°25'0 0.0
2018-Feb-21 02:27N 36°58' W 076°25'0 0.0
2018-Feb-21 01:57N 36°58' W 076°25'0 0.0
2018-Feb-21 01:27N 36°58' W 076°25'0 0.0
2018-Feb-21 00:56N 36°58' W 076°25'0 0.0
2018-Feb-21 00:24N 36°58' W 076°25'0 0.0
2018-Feb-20 23:49N 36°58' W 076°25'0 0.0
2018-Feb-20 23:29N 36°58' W 076°25'0 0.0
2018-Feb-20 22:58N 36°58' W 076°25'0 0.0
2018-Feb-20 22:28N 36°58' W 076°25'0 0.0
2018-Feb-20 21:57N 36°58' W 076°25'0 0.0
2018-Feb-20 21:23N 36°58' W 076°25'0 0.0
2018-Feb-20 20:57N 36°58' W 076°25'0 0.0
2018-Feb-20 20:26N 36°58' W 076°25'0 0.0
2018-Feb-20 20:00N 36°58' W 076°25'0 0.0
2018-Feb-20 19:29N 36°58' W 076°25'2 1.0
2018-Feb-20 17:12N 36°59' W 076°27'0 0.0
2018-Feb-20 12:22N 36°59' W 076°27'2 3.7
2018-Feb-20 11:46N 36°58' W 076°25'0 0.0
2018-Feb-20 11:30N 36°58' W 076°25'0 0.2
2018-Feb-20 11:00N 36°58' W 076°25'0 0.0
2018-Feb-20 10:30N 36°58' W 076°25'0 0.0
2018-Feb-20 09:59N 36°58' W 076°25'0 0.0
2018-Feb-20 09:21N 36°58' W 076°25'0 0.0
2018-Feb-20 08:56N 36°58' W 076°25'0 0.0
2018-Feb-20 08:30N 36°58' W 076°25'0 0.0
2018-Feb-20 07:54N 36°58' W 076°25'0 0.0
2018-Feb-20 07:23N 36°58' W 076°25'0 0.0
2018-Feb-20 06:58N 36°58' W 076°25'0 0.0
2018-Feb-20 06:27N 36°58' W 076°25'0 0.0
2018-Feb-20 05:57N 36°58' W 076°25'0 0.0
2018-Feb-20 05:27N 36°58' W 076°25'0 0.0
2018-Feb-20 04:56N 36°58' W 076°25'0 0.0
2018-Feb-20 04:26N 36°58' W 076°25'0 0.0
2018-Feb-20 03:56N 36°58' W 076°25'0 0.0
2018-Feb-20 03:30N 36°58' W 076°25'0 0.0
2018-Feb-20 03:00N 36°58' W 076°25'0 0.0
2018-Feb-20 02:29N 36°58' W 076°25'0 0.0
2018-Feb-20 01:59N 36°58' W 076°25'0 0.0
2018-Feb-20 01:29N 36°58' W 076°25'0 0.0
2018-Feb-20 00:59N 36°58' W 076°25'0 0.0
2018-Feb-20 00:28N 36°58' W 076°25'0 0.0
2018-Feb-19 23:45N 36°58' W 076°25'0 0.0
2018-Feb-19 23:30N 36°58' W 076°25'1 1.6
2018-Feb-19 22:58N 36°58' W 076°26'1 1.6
2018-Feb-19 22:29N 36°58' W 076°26'0 0.4
2018-Feb-19 21:54N 36°58' W 076°26'1 0.8
2018-Feb-19 20:48N 36°59' W 076°27'0 0.0
2018-Feb-19 15:40N 36°59' W 076°27'0 0.1
2018-Feb-19 15:27N 36°59' W 076°27'0 0.0
2018-Feb-19 15:00N 36°59' W 076°27'0 0.1
2018-Feb-19 12:22N 36°59' W 076°27'3 6.6
2018-Feb-19 11:56N 36°57' W 076°24'3 7.0
2018-Feb-19 11:30N 36°56' W 076°21'4 7.5
2018-Feb-19 11:00N 36°52' W 076°20'4 7.1
2018-Feb-19 10:30N 36°49' W 076°17'0 0.3
2018-Feb-19 10:00N 36°49' W 076°17'0 0.0
2018-Feb-19 09:30N 36°49' W 076°17'0 0.0
2018-Feb-19 09:00N 36°49' W 076°17'0 0.0
2018-Feb-19 08:30N 36°49' W 076°17'0 0.0
2018-Feb-19 08:00N 36°49' W 076°17'0 0.0
2018-Feb-19 07:30N 36°49' W 076°17'0 0.0
2018-Feb-19 07:00N 36°49' W 076°17'0 0.0
2018-Feb-19 06:30N 36°49' W 076°17'0 0.0
2018-Feb-19 06:00N 36°49' W 076°17'0 0.0
2018-Feb-19 05:30N 36°49' W 076°17'0 0.0
2018-Feb-19 05:00N 36°49' W 076°17'0 0.0
2018-Feb-19 04:30N 36°49' W 076°17'0 0.0
2018-Feb-19 04:00N 36°49' W 076°17'0 0.0
2018-Feb-19 03:30N 36°49' W 076°17'0 0.0
2018-Feb-19 03:00N 36°49' W 076°17'0 0.0
2018-Feb-19 02:30N 36°49' W 076°17'0 0.0
2018-Feb-19 02:00N 36°49' W 076°17'0 0.0
2018-Feb-19 01:30N 36°49' W 076°17'0 0.0
2018-Feb-19 01:01N 36°49' W 076°17'0 0.0
2018-Feb-19 00:30N 36°49' W 076°17'0 0.0
2018-Feb-19 00:00N 36°49' W 076°17'0 0.0
2018-Feb-18 23:30N 36°49' W 076°17'0 0.0
2018-Feb-18 23:00N 36°49' W 076°17'0 0.0
2018-Feb-18 22:30N 36°49' W 076°17'0 0.0
2018-Feb-18 22:00N 36°49' W 076°17'0 0.0
2018-Feb-18 21:30N 36°49' W 076°17'0 0.0
2018-Feb-18 21:00N 36°49' W 076°17'0 0.0
2018-Feb-18 20:30N 36°49' W 076°17'0 0.0
2018-Feb-18 20:00N 36°49' W 076°17'0 0.0
2018-Feb-18 19:30N 36°49' W 076°17'0 0.0
2018-Feb-18 19:00N 36°49' W 076°17'0 0.0
2018-Feb-18 18:30N 36°49' W 076°17'0 0.0
2018-Feb-18 18:00N 36°49' W 076°17'0 0.0
2018-Feb-18 17:30N 36°49' W 076°17'0 0.0
2018-Feb-18 17:00N 36°49' W 076°17'0 0.0
2018-Feb-18 16:30N 36°49' W 076°17'0 0.0
2018-Feb-18 16:00N 36°49' W 076°17'0 0.0
2018-Feb-18 15:30N 36°49' W 076°17'0 0.0
2018-Feb-18 15:00N 36°49' W 076°17'0 0.0
2018-Feb-18 14:30N 36°49' W 076°17'0 0.0
2018-Feb-18 14:00N 36°49' W 076°17'0 0.0
2018-Feb-18 13:30N 36°49' W 076°17'0 0.0
2018-Feb-18 13:00N 36°49' W 076°17'0 0.0
2018-Feb-18 12:30N 36°49' W 076°17'0 0.0
2018-Feb-18 12:00N 36°49' W 076°17'0 0.0
2018-Feb-18 11:30N 36°49' W 076°17'0 0.0
2018-Feb-18 11:00N 36°49' W 076°17'0 0.0
2018-Feb-18 10:30N 36°49' W 076°17'0 0.0
2018-Feb-18 10:00N 36°49' W 076°17'0 0.0
2018-Feb-18 09:30N 36°49' W 076°17'0 0.0
2018-Feb-18 09:01N 36°49' W 076°17'0 0.0
2018-Feb-18 08:30N 36°49' W 076°17'0 0.0
2018-Feb-18 08:00N 36°49' W 076°17'0 0.0
2018-Feb-18 07:30N 36°49' W 076°17'0 0.0
2018-Feb-18 07:00N 36°49' W 076°17'0 0.0
2018-Feb-18 06:30N 36°49' W 076°17'0 0.0
2018-Feb-18 06:00N 36°49' W 076°17'0 0.0
2018-Feb-18 05:30N 36°49' W 076°17'0 0.0
2018-Feb-18 05:00N 36°49' W 076°17'0 0.0
2018-Feb-18 04:30N 36°49' W 076°17'0 0.0
2018-Feb-18 04:00N 36°49' W 076°17'0 0.0
2018-Feb-18 03:30N 36°49' W 076°17'0 0.0
2018-Feb-18 03:00N 36°49' W 076°17'0 0.0
2018-Feb-18 02:31N 36°49' W 076°17'0 0.0
2018-Feb-18 02:00N 36°49' W 076°17'0 0.0
2018-Feb-18 01:30N 36°49' W 076°17'0 0.0
2018-Feb-18 01:00N 36°49' W 076°17'0 0.0
2018-Feb-18 00:30N 36°49' W 076°17'0 0.0
2018-Feb-18 00:00N 36°49' W 076°17'0 0.0
2018-Feb-17 23:30N 36°49' W 076°17'0 0.0
2018-Feb-17 23:00N 36°49' W 076°17'0 0.0
2018-Feb-17 22:30N 36°49' W 076°17'0 0.0
2018-Feb-17 22:00N 36°49' W 076°17'0 0.0
2018-Feb-17 21:30N 36°49' W 076°17'0 0.0
2018-Feb-17 21:00N 36°49' W 076°17'0 0.0
2018-Feb-17 20:30N 36°49' W 076°17'0 0.0
2018-Feb-17 20:00N 36°49' W 076°17'0 0.0
2018-Feb-17 19:30N 36°49' W 076°17'0 0.0
2018-Feb-17 19:00N 36°49' W 076°17'0 0.1
2018-Feb-17 18:30N 36°49' W 076°17'0 0.0
2018-Feb-17 18:01N 36°49' W 076°17'0 0.0
2018-Feb-17 17:30N 36°49' W 076°17'0 0.0
2018-Feb-17 17:00N 36°49' W 076°17'0 0.0
2018-Feb-17 16:30N 36°49' W 076°17'0 0.0
2018-Feb-17 16:00N 36°49' W 076°17'0 0.0
2018-Feb-17 15:31N 36°49' W 076°17'0 0.0
2018-Feb-17 15:01N 36°49' W 076°17'0 0.1
2018-Feb-17 14:31N 36°49' W 076°17'0 0.1
2018-Feb-17 14:01N 36°49' W 076°17'0 0.0
2018-Feb-17 13:30N 36°49' W 076°17'0 0.0
2018-Feb-17 13:00N 36°49' W 076°17'0 0.0
2018-Feb-17 12:31N 36°49' W 076°17'0 0.0
2018-Feb-17 12:00N 36°49' W 076°17'0 0.0
2018-Feb-17 11:30N 36°49' W 076°17'0 0.0
2018-Feb-17 11:00N 36°49' W 076°17'0 0.0
2018-Feb-17 10:31N 36°49' W 076°17'0 0.0
2018-Feb-17 10:00N 36°49' W 076°17'0 0.0
2018-Feb-17 09:31N 36°49' W 076°17'0 0.0
2018-Feb-17 09:00N 36°49' W 076°17'0 0.0
2018-Feb-17 08:30N 36°49' W 076°17'0 0.0
2018-Feb-17 08:00N 36°49' W 076°17'0 0.0
2018-Feb-17 07:30N 36°49' W 076°17'0 0.0
2018-Feb-17 07:00N 36°49' W 076°17'0 0.0
2018-Feb-17 06:30N 36°49' W 076°17'0 0.0
2018-Feb-17 06:00N 36°49' W 076°17'0 0.0
2018-Feb-17 05:30N 36°49' W 076°17'0 0.0
2018-Feb-17 05:01N 36°49' W 076°17'0 0.0
2018-Feb-17 04:30N 36°49' W 076°17'0 0.0
2018-Feb-17 04:01N 36°49' W 076°17'0 0.0
2018-Feb-17 03:31N 36°49' W 076°17'0 0.0
2018-Feb-17 03:00N 36°49' W 076°17'0 0.0
2018-Feb-17 02:31N 36°49' W 076°17'0 0.0
2018-Feb-17 02:00N 36°49' W 076°17'0 0.0
2018-Feb-17 01:30N 36°49' W 076°17'0 0.0
2018-Feb-17 01:01N 36°49' W 076°17'0 0.0
2018-Feb-17 00:31N 36°49' W 076°17'0 0.0
2018-Feb-17 00:00N 36°49' W 076°17'0 0.0
2018-Feb-16 23:30N 36°49' W 076°17'0 0.0
2018-Feb-16 23:01N 36°49' W 076°17'0 0.0
2018-Feb-16 22:30N 36°49' W 076°17'0 0.0
2018-Feb-16 22:01N 36°49' W 076°17'0 0.0
2018-Feb-16 21:31N 36°49' W 076°17'0 0.0
2018-Feb-16 21:01N 36°49' W 076°17'0 0.0
2018-Feb-16 20:30N 36°49' W 076°17'0 0.0
2018-Feb-16 20:00N 36°49' W 076°17'0 0.0
2018-Feb-16 19:30N 36°49' W 076°17'0 0.0
2018-Feb-16 19:00N 36°49' W 076°17'0 0.1
2018-Feb-16 18:31N 36°49' W 076°17'0 0.1
2018-Feb-16 18:00N 36°49' W 076°17'0 0.0
2018-Feb-16 17:30N 36°49' W 076°17'0 0.0
2018-Feb-16 17:00N 36°49' W 076°17'0 0.0
2018-Feb-16 16:30N 36°49' W 076°17'0 0.0
2018-Feb-16 16:01N 36°49' W 076°17'0 0.1
2018-Feb-16 15:31N 36°49' W 076°17'0 0.1
2018-Feb-16 15:00N 36°49' W 076°17'0 0.0
2018-Feb-16 14:30N 36°49' W 076°17'0 0.0
2018-Feb-16 14:00N 36°49' W 076°17'0 0.0
2018-Feb-16 13:30N 36°49' W 076°17'0 0.0
2018-Feb-16 13:01N 36°49' W 076°17'0 0.0
2018-Feb-16 12:30N 36°49' W 076°17'0 0.1
2018-Feb-16 12:00N 36°49' W 076°17'0 0.0
2018-Feb-16 11:31N 36°49' W 076°17'0 0.0
2018-Feb-16 11:00N 36°49' W 076°17'0 0.0
2018-Feb-16 10:31N 36°49' W 076°17'0 0.0
2018-Feb-16 10:00N 36°49' W 076°17'0 0.0
2018-Feb-16 09:30N 36°49' W 076°17'0 0.0
2018-Feb-16 09:00N 36°49' W 076°17'0 0.0
2018-Feb-16 08:31N 36°49' W 076°17'0 0.0
2018-Feb-16 08:00N 36°49' W 076°17'0 0.0
2018-Feb-16 07:31N 36°49' W 076°17'0 0.0
2018-Feb-16 07:01N 36°49' W 076°17'0 0.0
2018-Feb-16 06:31N 36°49' W 076°17'0 0.0
2018-Feb-16 06:00N 36°49' W 076°17'0 0.0
2018-Feb-16 05:31N 36°49' W 076°17'0 0.0
2018-Feb-16 05:01N 36°49' W 076°17'0 0.0
2018-Feb-16 04:31N 36°49' W 076°17'0 0.0
2018-Feb-16 04:01N 36°49' W 076°17'0 0.0
2018-Feb-16 03:31N 36°49' W 076°17'0 0.0
2018-Feb-16 03:00N 36°49' W 076°17'0 0.0
2018-Feb-16 02:30N 36°49' W 076°17'0 0.0
2018-Feb-16 02:00N 36°49' W 076°17'0 0.0
2018-Feb-16 01:30N 36°49' W 076°17'0 0.0
2018-Feb-16 01:00N 36°49' W 076°17'0 0.0
2018-Feb-16 00:31N 36°49' W 076°17'0 0.0
2018-Feb-16 00:00N 36°49' W 076°17'0 0.0
2018-Feb-15 23:31N 36°49' W 076°17'0 0.0
2018-Feb-15 23:00N 36°49' W 076°17'0 0.0
2018-Feb-15 22:31N 36°49' W 076°17'0 1.0
2018-Feb-15 22:01N 36°50' W 076°18'3 6.8
2018-Feb-15 21:30N 36°53' W 076°20'4 7.0
2018-Feb-15 20:56N 36°57' W 076°21'5 4.3
2018-Feb-15 19:41N 36°59' W 076°27'  

Dump ship's entire track history